<?xml version="1.0" encoding="UTF-8" standalone="no" ?>
<gpx xmlns="http://www.topografix.com/GPX/1/1" xmlns:xsi="http://www.w3.org/2001/XMLSchema-instance" xsi:schemaLocation="http://www.topografix.com/GPX/1/1 http://www.topografix.com/GPX/1/1/gpx.xsd" version="1.1" creator="VisuGPX - https://www.visugpx.com">
  <metadata>
    <name>13272583-Oeillon Gr1</name>
  </metadata>
  <trk>
    <name><![CDATA[13272583-Oeillon Gr1]]></name>
    <trkseg>
      <trkpt lat="45.36841" lon="4.52827">
        <ele>1204</ele>
        <time>2021-09-20T09:43:49Z</time>
      </trkpt>
      <trkpt lat="45.36902" lon="4.53047">
        <ele>1223</ele>
        <time>2021-09-20T09:47:31Z</time>
      </trkpt>
      <trkpt lat="45.36935" lon="4.53275">
        <ele>1241</ele>
        <time>2021-09-20T09:51:09Z</time>
      </trkpt>
      <trkpt lat="45.36987" lon="4.53393">
        <ele>1249</ele>
        <time>2021-09-20T09:53:20Z</time>
      </trkpt>
      <trkpt lat="45.37029" lon="4.53549">
        <ele>1246</ele>
        <time>2021-09-20T09:55:56Z</time>
      </trkpt>
      <trkpt lat="45.36988" lon="4.5378">
        <ele>1244</ele>
        <time>2021-09-20T09:59:40Z</time>
      </trkpt>
      <trkpt lat="45.37003" lon="4.53993">
        <ele>1230</ele>
        <time>2021-09-20T10:03:00Z</time>
      </trkpt>
      <trkpt lat="45.36983" lon="4.54076">
        <ele>1226</ele>
        <time>2021-09-20T10:04:23Z</time>
      </trkpt>
      <trkpt lat="45.37014" lon="4.54266">
        <ele>1222</ele>
        <time>2021-09-20T10:07:25Z</time>
      </trkpt>
      <trkpt lat="45.37008" lon="4.54393">
        <ele>1227</ele>
        <time>2021-09-20T10:09:25Z</time>
      </trkpt>
      <trkpt lat="45.37029" lon="4.54509">
        <ele>1244</ele>
        <time>2021-09-20T10:11:17Z</time>
      </trkpt>
      <trkpt lat="45.37156" lon="4.54722">
        <ele>1275</ele>
        <time>2021-09-20T10:15:39Z</time>
      </trkpt>
      <trkpt lat="45.37219" lon="4.54888">
        <ele>1284</ele>
        <time>2021-09-20T10:18:36Z</time>
      </trkpt>
      <trkpt lat="45.37156" lon="4.5522">
        <ele>1293</ele>
        <time>2021-09-20T10:23:58Z</time>
      </trkpt>
      <trkpt lat="45.37148" lon="4.55422">
        <ele>1295</ele>
        <time>2021-09-20T10:27:08Z</time>
      </trkpt>
      <trkpt lat="45.37107" lon="4.55588">
        <ele>1302</ele>
        <time>2021-09-20T10:29:53Z</time>
      </trkpt>
      <trkpt lat="45.3713" lon="4.55718">
        <ele>1300</ele>
        <time>2021-09-20T10:31:58Z</time>
      </trkpt>
      <trkpt lat="45.372" lon="4.55858">
        <ele>1300</ele>
        <time>2021-09-20T10:34:40Z</time>
      </trkpt>
      <trkpt lat="45.37233" lon="4.56012">
        <ele>1305</ele>
        <time>2021-09-20T10:37:11Z</time>
      </trkpt>
      <trkpt lat="45.3732" lon="4.56183">
        <ele>1300</ele>
        <time>2021-09-20T10:40:28Z</time>
      </trkpt>
      <trkpt lat="45.37401" lon="4.56284">
        <ele>1309</ele>
        <time>2021-09-20T10:42:52Z</time>
      </trkpt>
      <trkpt lat="45.37379" lon="4.56486">
        <ele>1315</ele>
        <time>2021-09-20T10:46:04Z</time>
      </trkpt>
      <trkpt lat="45.37391" lon="4.56631">
        <ele>1323</ele>
        <time>2021-09-20T10:48:21Z</time>
      </trkpt>
      <trkpt lat="45.37394" lon="4.56772">
        <ele>1318</ele>
        <time>2021-09-20T10:50:33Z</time>
      </trkpt>
      <trkpt lat="45.37433" lon="4.56831">
        <ele>1316</ele>
        <time>2021-09-20T10:51:49Z</time>
      </trkpt>
      <trkpt lat="45.37439" lon="4.56912">
        <ele>1307</ele>
        <time>2021-09-20T10:53:05Z</time>
      </trkpt>
      <trkpt lat="45.37493" lon="4.57017">
        <ele>1310</ele>
        <time>2021-09-20T10:55:07Z</time>
      </trkpt>
      <trkpt lat="45.37492" lon="4.5715">
        <ele>1306</ele>
        <time>2021-09-20T10:57:12Z</time>
      </trkpt>
      <trkpt lat="45.37505" lon="4.57288">
        <ele>1293</ele>
        <time>2021-09-20T10:59:22Z</time>
      </trkpt>
      <trkpt lat="45.37625" lon="4.57385">
        <ele>1297</ele>
        <time>2021-09-20T11:02:27Z</time>
      </trkpt>
      <trkpt lat="45.37772" lon="4.57533">
        <ele>1301</ele>
        <time>2021-09-20T11:06:27Z</time>
      </trkpt>
      <trkpt lat="45.37526" lon="4.57883">
        <ele>1292</ele>
        <time>2021-09-20T11:14:11Z</time>
      </trkpt>
      <trkpt lat="45.37472" lon="4.57952">
        <ele>1288</ele>
        <time>2021-09-20T11:15:48Z</time>
      </trkpt>
      <trkpt lat="45.37346" lon="4.58085">
        <ele>1271</ele>
        <time>2021-09-20T11:19:17Z</time>
      </trkpt>
      <trkpt lat="45.37276" lon="4.58239">
        <ele>1251</ele>
        <time>2021-09-20T11:22:09Z</time>
      </trkpt>
      <trkpt lat="45.37044" lon="4.58482">
        <ele>1212</ele>
        <time>2021-09-20T11:28:33Z</time>
      </trkpt>
      <trkpt lat="45.36993" lon="4.58551">
        <ele>1209</ele>
        <time>2021-09-20T11:30:07Z</time>
      </trkpt>
      <trkpt lat="45.36709" lon="4.58709">
        <ele>1211</ele>
        <time>2021-09-20T11:36:54Z</time>
      </trkpt>
      <trkpt lat="45.36641" lon="4.58803">
        <ele>1206</ele>
        <time>2021-09-20T11:39:01Z</time>
      </trkpt>
      <trkpt lat="45.36605" lon="4.58886">
        <ele>1196</ele>
        <time>2021-09-20T11:40:32Z</time>
      </trkpt>
      <trkpt lat="45.36692" lon="4.59417">
        <ele>1153</ele>
        <time>2021-09-20T11:49:03Z</time>
      </trkpt>
      <trkpt lat="45.36792" lon="4.59416">
        <ele>1154</ele>
        <time>2021-09-20T11:51:17Z</time>
      </trkpt>
      <trkpt lat="45.36912" lon="4.59377">
        <ele>1152</ele>
        <time>2021-09-20T11:54:01Z</time>
      </trkpt>
      <trkpt lat="45.37079" lon="4.5933">
        <ele>1153</ele>
        <time>2021-09-20T11:57:48Z</time>
      </trkpt>
      <trkpt lat="45.37209" lon="4.59366">
        <ele>1146</ele>
        <time>2021-09-20T12:00:45Z</time>
      </trkpt>
      <trkpt lat="45.37353" lon="4.59482">
        <ele>1131</ele>
        <time>2021-09-20T12:04:26Z</time>
      </trkpt>
      <trkpt lat="45.37415" lon="4.59556">
        <ele>1112</ele>
        <time>2021-09-20T12:06:14Z</time>
      </trkpt>
      <trkpt lat="45.37505" lon="4.59568">
        <ele>1103</ele>
        <time>2021-09-20T12:08:14Z</time>
      </trkpt>
      <trkpt lat="45.37535" lon="4.59597">
        <ele>1092</ele>
        <time>2021-09-20T12:09:03Z</time>
      </trkpt>
      <trkpt lat="45.37619" lon="4.59594">
        <ele>1090</ele>
        <time>2021-09-20T12:10:55Z</time>
      </trkpt>
      <trkpt lat="45.37604" lon="4.59641">
        <ele>1083</ele>
        <time>2021-09-20T12:11:43Z</time>
      </trkpt>
      <trkpt lat="45.37591" lon="4.59803">
        <ele>1079</ele>
        <time>2021-09-20T12:14:16Z</time>
      </trkpt>
      <trkpt lat="45.37541" lon="4.59883">
        <ele>1068</ele>
        <time>2021-09-20T12:15:56Z</time>
      </trkpt>
      <trkpt lat="45.37531" lon="4.5998">
        <ele>1066</ele>
        <time>2021-09-20T12:17:28Z</time>
      </trkpt>
      <trkpt lat="45.37505" lon="4.60003">
        <ele>1058</ele>
        <time>2021-09-20T12:18:09Z</time>
      </trkpt>
      <trkpt lat="45.37386" lon="4.60019">
        <ele>1036</ele>
        <time>2021-09-20T12:20:49Z</time>
      </trkpt>
      <trkpt lat="45.37275" lon="4.60045">
        <ele>1022</ele>
        <time>2021-09-20T12:23:19Z</time>
      </trkpt>
      <trkpt lat="45.37389" lon="4.60074">
        <ele>1035</ele>
        <time>2021-09-20T12:25:53Z</time>
      </trkpt>
      <trkpt lat="45.3748" lon="4.60077">
        <ele>1049</ele>
        <time>2021-09-20T12:27:55Z</time>
      </trkpt>
      <trkpt lat="45.37627" lon="4.60182">
        <ele>1062</ele>
        <time>2021-09-20T12:31:34Z</time>
      </trkpt>
      <trkpt lat="45.37731" lon="4.60315">
        <ele>1063</ele>
        <time>2021-09-20T12:34:41Z</time>
      </trkpt>
      <trkpt lat="45.3787" lon="4.60478">
        <ele>1084</ele>
        <time>2021-09-20T12:38:41Z</time>
      </trkpt>
      <trkpt lat="45.37974" lon="4.60622">
        <ele>1088</ele>
        <time>2021-09-20T12:41:55Z</time>
      </trkpt>
      <trkpt lat="45.38005" lon="4.60752">
        <ele>1096</ele>
        <time>2021-09-20T12:44:03Z</time>
      </trkpt>
      <trkpt lat="45.3807" lon="4.60714">
        <ele>1107</ele>
        <time>2021-09-20T12:45:37Z</time>
      </trkpt>
      <trkpt lat="45.38068" lon="4.60667">
        <ele>1104</ele>
        <time>2021-09-20T12:46:21Z</time>
      </trkpt>
      <trkpt lat="45.38073" lon="4.60624">
        <ele>1103</ele>
        <time>2021-09-20T12:47:02Z</time>
      </trkpt>
      <trkpt lat="45.38089" lon="4.60568">
        <ele>1105</ele>
        <time>2021-09-20T12:47:59Z</time>
      </trkpt>
      <trkpt lat="45.38098" lon="4.60528">
        <ele>1110</ele>
        <time>2021-09-20T12:48:38Z</time>
      </trkpt>
      <trkpt lat="45.38143" lon="4.60519">
        <ele>1118</ele>
        <time>2021-09-20T12:49:39Z</time>
      </trkpt>
      <trkpt lat="45.38202" lon="4.60427">
        <ele>1135</ele>
        <time>2021-09-20T12:51:36Z</time>
      </trkpt>
      <trkpt lat="45.38179" lon="4.60408">
        <ele>1133</ele>
        <time>2021-09-20T12:52:11Z</time>
      </trkpt>
      <trkpt lat="45.38139" lon="4.60408">
        <ele>1131</ele>
        <time>2021-09-20T12:53:05Z</time>
      </trkpt>
      <trkpt lat="45.38083" lon="4.60391">
        <ele>1135</ele>
        <time>2021-09-20T12:54:21Z</time>
      </trkpt>
      <trkpt lat="45.38046" lon="4.60378">
        <ele>1134</ele>
        <time>2021-09-20T12:55:12Z</time>
      </trkpt>
      <trkpt lat="45.38004" lon="4.60315">
        <ele>1143</ele>
        <time>2021-09-20T12:56:33Z</time>
      </trkpt>
      <trkpt lat="45.37974" lon="4.60253">
        <ele>1144</ele>
        <time>2021-09-20T12:57:44Z</time>
      </trkpt>
      <trkpt lat="45.37959" lon="4.60158">
        <ele>1142</ele>
        <time>2021-09-20T12:59:15Z</time>
      </trkpt>
      <trkpt lat="45.3799" lon="4.60092">
        <ele>1152</ele>
        <time>2021-09-20T13:00:29Z</time>
      </trkpt>
      <trkpt lat="45.38083" lon="4.59965">
        <ele>1179</ele>
        <time>2021-09-20T13:03:21Z</time>
      </trkpt>
      <trkpt lat="45.38104" lon="4.59914">
        <ele>1185</ele>
        <time>2021-09-20T13:04:17Z</time>
      </trkpt>
      <trkpt lat="45.38109" lon="4.59857">
        <ele>1192</ele>
        <time>2021-09-20T13:05:11Z</time>
      </trkpt>
      <trkpt lat="45.38043" lon="4.59756">
        <ele>1196</ele>
        <time>2021-09-20T13:07:20Z</time>
      </trkpt>
      <trkpt lat="45.38069" lon="4.59602">
        <ele>1210</ele>
        <time>2021-09-20T13:09:48Z</time>
      </trkpt>
      <trkpt lat="45.38111" lon="4.59478">
        <ele>1227</ele>
        <time>2021-09-20T13:11:58Z</time>
      </trkpt>
      <trkpt lat="45.38159" lon="4.59342">
        <ele>1251</ele>
        <time>2021-09-20T13:14:20Z</time>
      </trkpt>
      <trkpt lat="45.38175" lon="4.59233">
        <ele>1260</ele>
        <time>2021-09-20T13:16:05Z</time>
      </trkpt>
      <trkpt lat="45.38283" lon="4.58997">
        <ele>1314</ele>
        <time>2021-09-20T13:20:29Z</time>
      </trkpt>
      <trkpt lat="45.38329" lon="4.58918">
        <ele>1334</ele>
        <time>2021-09-20T13:22:05Z</time>
      </trkpt>
      <trkpt lat="45.38341" lon="4.58779">
        <ele>1346</ele>
        <time>2021-09-20T13:24:16Z</time>
      </trkpt>
      <trkpt lat="45.38326" lon="4.5871">
        <ele>1353</ele>
        <time>2021-09-20T13:25:24Z</time>
      </trkpt>
      <trkpt lat="45.38341" lon="4.58704">
        <ele>1355</ele>
        <time>2021-09-20T13:25:44Z</time>
      </trkpt>
      <trkpt lat="45.38415" lon="4.58728">
        <ele>1363</ele>
        <time>2021-09-20T13:27:26Z</time>
      </trkpt>
      <trkpt lat="45.38444" lon="4.58715">
        <ele>1364</ele>
        <time>2021-09-20T13:28:06Z</time>
      </trkpt>
      <trkpt lat="45.38422" lon="4.58663">
        <ele>1365</ele>
        <time>2021-09-20T13:29:03Z</time>
      </trkpt>
      <trkpt lat="45.38351" lon="4.586">
        <ele>1371</ele>
        <time>2021-09-20T13:30:55Z</time>
      </trkpt>
      <trkpt lat="45.38289" lon="4.58601">
        <ele>1371</ele>
        <time>2021-09-20T13:32:18Z</time>
      </trkpt>
      <trkpt lat="45.3827" lon="4.58566">
        <ele>1376</ele>
        <time>2021-09-20T13:32:59Z</time>
      </trkpt>
      <trkpt lat="45.38261" lon="4.58522">
        <ele>1380</ele>
        <time>2021-09-20T13:33:42Z</time>
      </trkpt>
      <trkpt lat="45.38202" lon="4.58512">
        <ele>1381</ele>
        <time>2021-09-20T13:35:01Z</time>
      </trkpt>
      <trkpt lat="45.3818" lon="4.58457">
        <ele>1387</ele>
        <time>2021-09-20T13:36:01Z</time>
      </trkpt>
      <trkpt lat="45.38221" lon="4.5835">
        <ele>1397</ele>
        <time>2021-09-20T13:37:55Z</time>
      </trkpt>
      <trkpt lat="45.38246" lon="4.58305">
        <ele>1401</ele>
        <time>2021-09-20T13:38:49Z</time>
      </trkpt>
      <trkpt lat="45.3827" lon="4.58201">
        <ele>1411</ele>
        <time>2021-09-20T13:40:31Z</time>
      </trkpt>
      <trkpt lat="45.38265" lon="4.58141">
        <ele>1416</ele>
        <time>2021-09-20T13:41:28Z</time>
      </trkpt>
      <trkpt lat="45.38277" lon="4.58113">
        <ele>1417</ele>
        <time>2021-09-20T13:41:59Z</time>
      </trkpt>
      <trkpt lat="45.38278" lon="4.5803">
        <ele>1420</ele>
        <time>2021-09-20T13:43:16Z</time>
      </trkpt>
      <trkpt lat="45.38312" lon="4.57988">
        <ele>1416</ele>
        <time>2021-09-20T13:44:17Z</time>
      </trkpt>
      <trkpt lat="45.38322" lon="4.57962">
        <ele>1414</ele>
        <time>2021-09-20T13:44:44Z</time>
      </trkpt>
      <trkpt lat="45.38313" lon="4.57909">
        <ele>1412</ele>
        <time>2021-09-20T13:45:35Z</time>
      </trkpt>
      <trkpt lat="45.38296" lon="4.57887">
        <ele>1411</ele>
        <time>2021-09-20T13:46:06Z</time>
      </trkpt>
      <trkpt lat="45.38297" lon="4.57715">
        <ele>1399</ele>
        <time>2021-09-20T13:48:47Z</time>
      </trkpt>
      <trkpt lat="45.38289" lon="4.57645">
        <ele>1398</ele>
        <time>2021-09-20T13:49:54Z</time>
      </trkpt>
      <trkpt lat="45.38262" lon="4.57506">
        <ele>1402</ele>
        <time>2021-09-20T13:52:09Z</time>
      </trkpt>
      <trkpt lat="45.38266" lon="4.57389">
        <ele>1412</ele>
        <time>2021-09-20T13:53:59Z</time>
      </trkpt>
      <trkpt lat="45.38247" lon="4.57351">
        <ele>1418</ele>
        <time>2021-09-20T13:54:42Z</time>
      </trkpt>
      <trkpt lat="45.38248" lon="4.57264">
        <ele>1422</ele>
        <time>2021-09-20T13:56:04Z</time>
      </trkpt>
      <trkpt lat="45.38264" lon="4.57248">
        <ele>1421</ele>
        <time>2021-09-20T13:56:30Z</time>
      </trkpt>
      <trkpt lat="45.38289" lon="4.57238">
        <ele>1418</ele>
        <time>2021-09-20T13:57:05Z</time>
      </trkpt>
      <trkpt lat="45.38329" lon="4.57229">
        <ele>1414</ele>
        <time>2021-09-20T13:57:59Z</time>
      </trkpt>
      <trkpt lat="45.38367" lon="4.5723">
        <ele>1408</ele>
        <time>2021-09-20T13:58:50Z</time>
      </trkpt>
      <trkpt lat="45.38396" lon="4.57227">
        <ele>1404</ele>
        <time>2021-09-20T13:59:28Z</time>
      </trkpt>
      <trkpt lat="45.38458" lon="4.57236">
        <ele>1393</ele>
        <time>2021-09-20T14:00:51Z</time>
      </trkpt>
      <trkpt lat="45.38423" lon="4.5752">
        <ele>1389</ele>
        <time>2021-09-20T14:05:22Z</time>
      </trkpt>
      <trkpt lat="45.38426" lon="4.57616">
        <ele>1391</ele>
        <time>2021-09-20T14:06:52Z</time>
      </trkpt>
      <trkpt lat="45.38437" lon="4.57716">
        <ele>1392</ele>
        <time>2021-09-20T14:08:27Z</time>
      </trkpt>
      <trkpt lat="45.38489" lon="4.57998">
        <ele>1396</ele>
        <time>2021-09-20T14:13:00Z</time>
      </trkpt>
      <trkpt lat="45.38488" lon="4.58076">
        <ele>1396</ele>
        <time>2021-09-20T14:14:13Z</time>
      </trkpt>
      <trkpt lat="45.38474" lon="4.58146">
        <ele>1394</ele>
        <time>2021-09-20T14:15:21Z</time>
      </trkpt>
      <trkpt lat="45.38369" lon="4.58317">
        <ele>1390</ele>
        <time>2021-09-20T14:18:54Z</time>
      </trkpt>
      <trkpt lat="45.38385" lon="4.5848">
        <ele>1375</ele>
        <time>2021-09-20T14:21:28Z</time>
      </trkpt>
      <trkpt lat="45.38405" lon="4.58558">
        <ele>1370</ele>
        <time>2021-09-20T14:22:46Z</time>
      </trkpt>
      <trkpt lat="45.38432" lon="4.58613">
        <ele>1366</ele>
        <time>2021-09-20T14:23:49Z</time>
      </trkpt>
      <trkpt lat="45.38445" lon="4.58693">
        <ele>1364</ele>
        <time>2021-09-20T14:25:06Z</time>
      </trkpt>
      <trkpt lat="45.38483" lon="4.58739">
        <ele>1365</ele>
        <time>2021-09-20T14:26:13Z</time>
      </trkpt>
      <trkpt lat="45.38511" lon="4.58815">
        <ele>1370</ele>
        <time>2021-09-20T14:27:33Z</time>
      </trkpt>
      <trkpt lat="45.38563" lon="4.58978">
        <ele>1378</ele>
        <time>2021-09-20T14:30:21Z</time>
      </trkpt>
      <trkpt lat="45.38584" lon="4.59089">
        <ele>1383</ele>
        <time>2021-09-20T14:32:09Z</time>
      </trkpt>
      <trkpt lat="45.38668" lon="4.59265">
        <ele>1378</ele>
        <time>2021-09-20T14:35:28Z</time>
      </trkpt>
      <trkpt lat="45.38659" lon="4.59345">
        <ele>1376</ele>
        <time>2021-09-20T14:36:44Z</time>
      </trkpt>
      <trkpt lat="45.38663" lon="4.59403">
        <ele>1375</ele>
        <time>2021-09-20T14:37:39Z</time>
      </trkpt>
      <trkpt lat="45.38679" lon="4.59449">
        <ele>1375</ele>
        <time>2021-09-20T14:38:27Z</time>
      </trkpt>
      <trkpt lat="45.38689" lon="4.59606">
        <ele>1374</ele>
        <time>2021-09-20T14:40:54Z</time>
      </trkpt>
      <trkpt lat="45.38708" lon="4.59666">
        <ele>1370</ele>
        <time>2021-09-20T14:41:56Z</time>
      </trkpt>
      <trkpt lat="45.38778" lon="4.5975">
        <ele>1358</ele>
        <time>2021-09-20T14:43:58Z</time>
      </trkpt>
      <trkpt lat="45.38817" lon="4.59814">
        <ele>1349</ele>
        <time>2021-09-20T14:45:18Z</time>
      </trkpt>
      <trkpt lat="45.38835" lon="4.59865">
        <ele>1344</ele>
        <time>2021-09-20T14:46:11Z</time>
      </trkpt>
      <trkpt lat="45.38853" lon="4.59885">
        <ele>1342</ele>
        <time>2021-09-20T14:46:42Z</time>
      </trkpt>
      <trkpt lat="45.38897" lon="4.60045">
        <ele>1353</ele>
        <time>2021-09-20T14:49:23Z</time>
      </trkpt>
      <trkpt lat="45.38874" lon="4.60415">
        <ele>1376</ele>
        <time>2021-09-20T14:55:11Z</time>
      </trkpt>
      <trkpt lat="45.38883" lon="4.60467">
        <ele>1372</ele>
        <time>2021-09-20T14:56:01Z</time>
      </trkpt>
      <trkpt lat="45.38904" lon="4.60498">
        <ele>1371</ele>
        <time>2021-09-20T14:56:41Z</time>
      </trkpt>
      <trkpt lat="45.38978" lon="4.60505">
        <ele>1365</ele>
        <time>2021-09-20T14:58:20Z</time>
      </trkpt>
      <trkpt lat="45.38985" lon="4.60523">
        <ele>1361</ele>
        <time>2021-09-20T14:58:40Z</time>
      </trkpt>
      <trkpt lat="45.39046" lon="4.60709">
        <ele>1327</ele>
        <time>2021-09-20T15:01:52Z</time>
      </trkpt>
      <trkpt lat="45.3913" lon="4.60867">
        <ele>1321</ele>
        <time>2021-09-20T15:04:58Z</time>
      </trkpt>
      <trkpt lat="45.39143" lon="4.60859">
        <ele>1322</ele>
        <time>2021-09-20T15:05:17Z</time>
      </trkpt>
      <trkpt lat="45.3921" lon="4.60959">
        <ele>1335</ele>
        <time>2021-09-20T15:07:26Z</time>
      </trkpt>
      <trkpt lat="45.39225" lon="4.61014">
        <ele>1343</ele>
        <time>2021-09-20T15:08:21Z</time>
      </trkpt>
      <trkpt lat="45.39239" lon="4.61021">
        <ele>1346</ele>
        <time>2021-09-20T15:08:41Z</time>
      </trkpt>
      <trkpt lat="45.39266" lon="4.61061">
        <ele>1348</ele>
        <time>2021-09-20T15:09:33Z</time>
      </trkpt>
      <trkpt lat="45.3928" lon="4.61207">
        <ele>1345</ele>
        <time>2021-09-20T15:11:51Z</time>
      </trkpt>
      <trkpt lat="45.3931" lon="4.61282">
        <ele>1334</ele>
        <time>2021-09-20T15:13:12Z</time>
      </trkpt>
      <trkpt lat="45.39274" lon="4.61299">
        <ele>1335</ele>
        <time>2021-09-20T15:14:03Z</time>
      </trkpt>
      <trkpt lat="45.39225" lon="4.61289">
        <ele>1333</ele>
        <time>2021-09-20T15:15:09Z</time>
      </trkpt>
      <trkpt lat="45.39243" lon="4.61324">
        <ele>1331</ele>
        <time>2021-09-20T15:15:50Z</time>
      </trkpt>
      <trkpt lat="45.39281" lon="4.61342">
        <ele>1326</ele>
        <time>2021-09-20T15:16:43Z</time>
      </trkpt>
      <trkpt lat="45.39318" lon="4.61368">
        <ele>1315</ele>
        <time>2021-09-20T15:17:38Z</time>
      </trkpt>
      <trkpt lat="45.39207" lon="4.61449">
        <ele>1288</ele>
        <time>2021-09-20T15:20:24Z</time>
      </trkpt>
      <trkpt lat="45.39111" lon="4.61457">
        <ele>1274</ele>
        <time>2021-09-20T15:22:33Z</time>
      </trkpt>
      <trkpt lat="45.39032" lon="4.61453">
        <ele>1265</ele>
        <time>2021-09-20T15:24:18Z</time>
      </trkpt>
      <trkpt lat="45.3891" lon="4.61587">
        <ele>1234</ele>
        <time>2021-09-20T15:27:44Z</time>
      </trkpt>
    </trkseg>
  </trk>
</gpx>